createdAt,value
2018-11-23T00:01:24.179Z,63.43
2018-11-23T00:03:53.294Z,59.60
2018-11-23T00:06:22.370Z,57.70
2018-11-23T00:08:52.684Z,65.17
2018-11-23T00:11:22.601Z,63.33
2018-11-23T00:13:51.621Z,58.30
2018-11-23T00:16:24.903Z,61.60
2018-11-23T00:18:55.747Z,60.83
2018-11-23T00:21:25.894Z,60.70
2018-11-23T00:23:55.200Z,64.60
2018-11-23T00:26:25.334Z,57.47
2018-11-23T00:28:55.154Z,59.93
2018-11-23T00:31:24.419Z,54.60
2018-11-23T00:33:53.506Z,57.97
2018-11-23T00:36:24.297Z,59.90
2018-11-23T00:38:54.318Z,58.27
2018-11-23T00:41:22.934Z,64.13
2018-11-23T00:43:51.621Z,67.00
2018-11-23T00:46:20.242Z,58.97
2018-11-23T00:48:48.991Z,61.03
2018-11-23T00:51:17.681Z,61.23
2018-11-23T00:53:46.337Z,56.93
2018-11-23T00:56:14.934Z,65.30
2018-11-23T00:58:43.571Z,55.60
2018-11-23T01:01:12.211Z,53.30
2018-11-23T01:03:40.839Z,53.17
2018-11-23T01:06:09.445Z,66.27
2018-11-23T01:08:38.102Z,64.80
2018-11-23T01:11:07.046Z,58.50
2018-11-23T01:13:35.681Z,62.63
2018-11-23T01:16:04.333Z,64.53
2018-11-23T01:18:32.970Z,51.23
2018-11-23T01:21:01.569Z,62.17
2018-11-23T01:23:30.217Z,55.90
2018-11-23T01:25:58.844Z,55.93
2018-11-23T01:28:27.522Z,55.20
2018-11-23T01:30:56.119Z,56.37
2018-11-23T01:33:24.802Z,56.30
2018-11-23T01:35:53.445Z,67.47
2018-11-23T01:38:22.147Z,55.03
2018-11-23T01:40:50.795Z,51.47
2018-11-23T01:43:19.505Z,58.37
2018-11-23T01:45:48.148Z,63.57
2018-11-23T01:48:16.804Z,57.83
2018-11-23T01:50:45.413Z,55.37
2018-11-23T01:53:14.067Z,53.63
2018-11-23T01:55:42.681Z,59.07
2018-11-23T01:58:11.334Z,55.90
2018-11-23T02:00:39.938Z,56.13
2018-11-23T02:03:08.522Z,52.27
2018-11-23T02:05:37.063Z,58.80
2018-11-23T02:08:06.038Z,58.40
2018-11-23T02:10:34.595Z,51.33
2018-11-23T02:13:03.252Z,59.87
2018-11-23T02:15:31.794Z,60.07
2018-11-23T02:18:00.365Z,62.40
2018-11-23T02:20:28.939Z,58.80
2018-11-23T02:22:57.477Z,55.27
2018-11-23T02:25:26.080Z,66.43
2018-11-23T02:27:54.623Z,60.47
2018-11-23T02:30:24.454Z,53.70
2018-11-23T02:32:53.035Z,60.90
2018-11-23T02:35:21.644Z,59.30
2018-11-23T02:37:50.193Z,57.43
2018-11-23T02:40:19.827Z,57.40
2018-11-23T02:42:48.486Z,56.97
2018-11-23T02:45:18.739Z,55.63
2018-11-23T02:47:47.895Z,60.77
2018-11-23T02:50:16.610Z,65.73
2018-11-23T02:52:45.651Z,51.93
2018-11-23T02:55:15.522Z,59.10
2018-11-23T02:57:44.075Z,54.87
2018-11-23T03:00:16.509Z,55.07
2018-11-23T03:02:45.138Z,55.90
2018-11-23T03:05:15.898Z,62.90
2018-11-23T03:07:44.602Z,57.57
2018-11-23T03:10:14.727Z,51.23
2018-11-23T03:12:44.071Z,55.93
2018-11-23T03:15:15.074Z,57.63
2018-11-23T03:17:44.542Z,65.43
2018-11-23T03:20:16.001Z,59.63
2018-11-23T03:22:44.563Z,60.70
2018-11-23T03:25:14.322Z,61.77
2018-11-23T03:27:42.902Z,63.07
2018-11-23T03:30:15.489Z,57.90
2018-11-23T03:32:44.731Z,65.43
2018-11-23T03:35:13.465Z,55.80
2018-11-23T03:37:42.254Z,68.37
2018-11-23T03:40:10.935Z,65.40
2018-11-23T03:42:39.546Z,57.00
2018-11-23T03:45:10.266Z,66.17
2018-11-23T03:47:38.912Z,65.30
2018-11-23T03:50:08.426Z,59.70
2018-11-23T03:52:37.089Z,55.43
2018-11-23T03:55:05.803Z,62.43
2018-11-23T03:57:34.453Z,61.73
2018-11-23T04:00:03.169Z,58.93
2018-11-23T04:02:31.776Z,56.90
2018-11-23T04:05:00.526Z,64.17
2018-11-23T04:07:29.156Z,66.20
2018-11-23T04:09:57.847Z,65.50
2018-11-23T04:12:26.429Z,59.37
2018-11-23T04:14:55.116Z,55.50
2018-11-23T04:17:23.710Z,59.17
2018-11-23T04:19:52.307Z,59.53
2018-11-23T04:22:20.960Z,60.63
2018-11-23T04:24:49.569Z,56.50
2018-11-23T04:27:18.217Z,61.80
2018-11-23T04:29:46.826Z,62.57
2018-11-23T04:32:15.474Z,62.17
2018-11-23T04:34:44.088Z,53.40
2018-11-23T04:37:12.810Z,56.53
2018-11-23T04:39:41.430Z,64.30
2018-11-23T04:42:10.092Z,63.77
2018-11-23T04:44:38.754Z,66.43
2018-11-23T04:47:07.446Z,61.37
2018-11-23T04:49:36.056Z,59.10
2018-11-23T04:52:04.713Z,65.83
2018-11-23T04:54:33.369Z,56.23
2018-11-23T04:57:02.012Z,57.03
2018-11-23T04:59:30.605Z,62.50
2018-11-23T05:01:59.229Z,58.57
2018-11-23T05:04:27.829Z,57.00
2018-11-23T05:06:56.490Z,58.13
2018-11-23T05:09:25.095Z,53.70
2018-11-23T05:11:53.780Z,58.83
2018-11-23T05:14:22.378Z,59.50
2018-11-23T05:16:51.017Z,57.10
2018-11-23T05:19:19.630Z,52.27
2018-11-23T05:21:48.290Z,53.97
2018-11-23T05:24:16.902Z,56.13
2018-11-23T05:26:45.747Z,64.93
2018-11-23T05:29:14.614Z,52.47
2018-11-23T05:31:43.266Z,59.57
2018-11-23T05:34:11.914Z,60.43
2018-11-23T05:36:40.928Z,57.80
2018-11-23T05:39:10.183Z,57.67
2018-11-23T05:41:39.555Z,56.43
2018-11-23T05:44:08.944Z,60.63
2018-11-23T05:46:37.965Z,60.50
2018-11-23T05:49:06.801Z,59.40
2018-11-23T05:51:37.082Z,57.30
2018-11-23T05:54:05.858Z,52.47
2018-11-23T05:56:34.488Z,56.67
2018-11-23T05:59:03.107Z,56.27
2018-11-23T06:01:31.758Z,56.60
2018-11-23T06:04:00.399Z,57.03
2018-11-23T06:06:29.053Z,60.17
2018-11-23T06:08:57.731Z,57.40
2018-11-23T06:11:26.325Z,59.00
2018-11-23T06:13:54.967Z,60.13
2018-11-23T06:16:23.581Z,53.33
2018-11-23T06:18:52.294Z,57.63
2018-11-23T06:21:21.751Z,59.67
2018-11-23T06:23:50.451Z,58.53
2018-11-23T06:26:22.368Z,56.63
2018-11-23T06:28:51.525Z,63.40
2018-11-23T06:31:20.133Z,56.63
2018-11-23T06:33:49.606Z,56.33
2018-11-23T06:36:18.633Z,64.93
2018-11-23T06:38:47.280Z,72.67
2018-11-23T06:41:15.906Z,72.17
2018-11-23T06:43:44.621Z,64.07
2018-11-23T06:46:13.842Z,73.93
2018-11-23T06:48:42.617Z,74.23
2018-11-23T06:51:17.961Z,91.73
2018-11-23T06:53:46.846Z,91.40
2018-11-23T06:56:15.442Z,104.67
2018-11-23T06:58:44.049Z,95.23
2018-11-23T07:01:13.162Z,73.30
2018-11-23T07:03:41.818Z,78.70
2018-11-23T07:06:10.439Z,99.67
2018-11-23T07:08:39.070Z,99.00
2018-11-23T07:11:07.707Z,105.00
2018-11-23T07:13:36.393Z,103.07
2018-11-23T07:16:05.073Z,107.70
2018-11-23T07:18:34.297Z,93.67
2018-11-23T07:21:02.865Z,99.93
2018-11-23T07:23:38.392Z,98.70
2018-11-23T07:26:07.195Z,95.13
2018-11-23T07:28:35.814Z,95.60
2018-11-23T07:31:05.328Z,97.07
2018-11-23T07:33:34.186Z,102.77
2018-11-23T07:36:02.766Z,101.60
2018-11-23T07:38:31.667Z,93.87
2018-11-23T07:41:11.392Z,86.73
2018-11-23T07:43:40.058Z,90.83
2018-11-23T07:46:08.674Z,100.03
2018-11-23T07:48:37.307Z,87.07
2018-11-23T07:51:06.431Z,91.70
2018-11-23T07:53:35.034Z,80.00
2018-11-23T07:56:03.617Z,75.10
2018-11-23T07:58:39.312Z,73.93
2018-11-23T08:01:08.152Z,71.00
2018-11-23T08:03:36.834Z,72.40
2018-11-23T08:06:05.513Z,76.43
2018-11-23T08:08:34.148Z,74.20
2018-11-23T08:11:06.711Z,64.20
2018-11-23T08:13:35.381Z,68.87
2018-11-23T08:16:08.825Z,70.17
2018-11-23T08:18:37.571Z,77.70
2018-11-23T08:21:12.451Z,66.57
2018-11-23T08:23:47.434Z,66.17
2018-11-23T08:26:16.301Z,69.17
2018-11-23T08:28:48.458Z,69.77
2018-11-23T08:31:17.157Z,66.07
2018-11-23T08:33:45.805Z,57.20
2018-11-23T08:36:14.380Z,57.90
2018-11-23T08:38:42.998Z,65.13
2018-11-23T08:41:16.383Z,73.30
2018-11-23T08:43:45.203Z,62.80
2018-11-23T08:46:13.782Z,61.93
2018-11-23T08:48:42.410Z,53.23
2018-11-23T08:51:10.991Z,56.67
2018-11-23T08:53:39.719Z,56.73
2018-11-23T08:56:09.443Z,52.93
2018-11-23T08:58:38.003Z,55.80
2018-11-23T09:01:07.906Z,53.13
2018-11-23T09:03:36.487Z,56.50
2018-11-23T09:06:05.121Z,51.10
2018-11-23T09:08:33.765Z,50.37
2018-11-23T09:11:02.572Z,54.80
2018-11-23T09:13:31.324Z,52.33
2018-11-23T09:15:59.996Z,53.17
2018-11-23T09:18:28.623Z,55.47
2018-11-23T09:20:57.259Z,52.53
2018-11-23T09:23:25.854Z,53.00
2018-11-23T09:25:54.566Z,53.97
2018-11-23T09:28:23.162Z,53.50
2018-11-23T09:30:51.768Z,53.47
2018-11-23T09:33:20.397Z,50.20
2018-11-23T09:35:49.058Z,52.23
2018-11-23T09:38:17.750Z,50.80
2018-11-23T09:40:46.370Z,56.17
2018-11-23T09:43:14.957Z,47.50
2018-11-23T09:45:43.615Z,50.37
2018-11-23T09:48:12.213Z,50.20
2018-11-23T09:50:40.852Z,52.20
2018-11-23T09:53:09.467Z,48.27
2018-11-23T09:55:38.726Z,48.77
2018-11-23T09:58:07.298Z,46.37
2018-11-23T10:00:37.176Z,47.43
2018-11-23T10:03:08.798Z,46.93
2018-11-23T10:05:38.201Z,48.50
2018-11-23T10:08:12.230Z,46.77
2018-11-23T10:10:46.743Z,51.47
2018-11-23T10:13:16.691Z,46.77
2018-11-23T10:15:48.858Z,44.40
2018-11-23T10:18:17.440Z,47.83
2018-11-23T10:20:54.068Z,46.90
2018-11-23T10:23:24.575Z,45.33
2018-11-23T10:25:55.707Z,47.50
2018-11-23T10:28:27.454Z,46.80
2018-11-23T10:30:56.262Z,42.47
2018-11-23T10:33:29.964Z,43.70
2018-11-23T10:36:00.735Z,46.47
2018-11-23T10:38:31.198Z,41.67
2018-11-23T10:40:59.926Z,41.93
2018-11-23T10:43:28.512Z,42.23
2018-11-23T10:46:04.649Z,44.13
2018-11-23T10:48:34.108Z,37.87
2018-11-23T10:51:07.597Z,40.67
2018-11-23T10:53:38.241Z,43.60
2018-11-23T10:56:07.525Z,38.73
2018-11-23T10:58:41.775Z,41.37
2018-11-23T11:01:18.908Z,40.77
2018-11-23T11:03:55.291Z,36.00
2018-11-23T11:06:30.442Z,40.40
2018-11-23T11:09:03.275Z,37.43
2018-11-23T11:11:39.021Z,37.07
2018-11-23T11:14:14.239Z,37.93
2018-11-23T11:16:45.923Z,41.23
2018-11-23T11:19:14.487Z,36.07
2018-11-23T11:21:43.097Z,35.13
2018-11-23T11:24:11.687Z,35.93
2018-11-23T11:26:40.314Z,37.50
2018-11-23T11:29:08.901Z,36.60
2018-11-23T11:31:37.534Z,38.43
2018-11-23T11:34:06.374Z,33.77
2018-11-23T11:36:35.000Z,35.80
2018-11-23T11:39:05.035Z,36.93
2018-11-23T11:41:33.639Z,32.70
2018-11-23T11:44:02.324Z,36.97
2018-11-23T11:46:30.960Z,32.37
2018-11-23T11:48:59.530Z,31.53
2018-11-23T11:51:28.142Z,35.53
2018-11-23T11:53:56.740Z,33.97
2018-11-23T11:56:26.078Z,38.83
2018-11-23T11:58:54.651Z,34.93
2018-11-23T12:01:24.957Z,30.80
2018-11-23T12:03:53.609Z,30.57
2018-11-23T12:06:22.188Z,30.00
2018-11-23T12:08:50.878Z,30.33
2018-11-23T12:11:19.555Z,29.83
2018-11-23T12:13:48.202Z,28.97
2018-11-23T12:16:16.791Z,29.07
2018-11-23T12:18:45.420Z,28.47
2018-11-23T12:21:14.022Z,30.00
2018-11-23T12:23:42.850Z,29.50
2018-11-23T12:26:11.447Z,29.63
2018-11-23T12:28:40.060Z,27.67
2018-11-23T12:31:08.678Z,27.00
2018-11-23T12:33:37.784Z,25.67
2018-11-23T12:36:06.421Z,25.90
2018-11-23T12:38:35.018Z,27.70
2018-11-23T12:41:03.598Z,29.40
2018-11-23T12:43:32.217Z,28.40
2018-11-23T12:46:00.818Z,28.13
2018-11-23T12:48:29.426Z,25.33
2018-11-23T12:50:58.008Z,24.33
2018-11-23T12:53:26.643Z,24.77
2018-11-23T12:55:55.226Z,27.27
2018-11-23T12:58:23.839Z,25.57
2018-11-23T13:00:52.379Z,23.73
2018-11-23T13:03:21.002Z,23.53
2018-11-23T13:05:49.570Z,24.63
2018-11-23T13:08:18.204Z,22.50
2018-11-23T13:10:46.822Z,21.93
2018-11-23T13:13:15.444Z,22.30
2018-11-23T13:15:44.029Z,21.23
2018-11-23T13:18:12.797Z,22.40
2018-11-23T13:20:42.074Z,23.77
2018-11-23T13:23:10.996Z,23.17
2018-11-23T13:25:39.575Z,24.77
2018-11-23T13:28:08.213Z,25.67
2018-11-23T13:30:37.316Z,25.37
2018-11-23T13:33:06.913Z,27.37
2018-11-23T13:35:35.494Z,23.07
2018-11-23T13:38:07.589Z,26.67
2018-11-23T13:40:36.257Z,25.80
2018-11-23T13:43:06.820Z,25.40
2018-11-23T13:45:35.844Z,24.27
2018-11-23T13:48:04.458Z,25.30
2018-11-23T13:50:40.393Z,23.73
2018-11-23T13:53:09.239Z,24.07
2018-11-23T13:55:37.850Z,21.20
2018-11-23T13:58:06.638Z,23.20
2018-11-23T14:00:35.222Z,24.00
2018-11-23T14:03:06.315Z,24.07
2018-11-23T14:05:34.939Z,27.10
2018-11-23T14:08:03.954Z,26.67
2018-11-23T14:10:32.832Z,26.27
2018-11-23T14:13:01.482Z,20.77
2018-11-23T14:15:31.429Z,21.67
2018-11-23T14:18:00.726Z,23.60
2018-11-23T14:20:29.718Z,21.37
2018-11-23T14:22:58.293Z,23.03
2018-11-23T14:25:28.609Z,26.17
2018-11-23T14:27:57.721Z,24.33
2018-11-23T14:30:27.838Z,25.13
2018-11-23T14:32:56.563Z,29.30
2018-11-23T14:35:26.979Z,28.57
2018-11-23T14:37:56.431Z,29.97
2018-11-23T14:40:25.275Z,30.67
2018-11-23T14:42:54.216Z,28.53
2018-11-23T14:45:25.594Z,28.20
2018-11-23T14:47:55.276Z,31.37
2018-11-23T14:50:25.405Z,31.90
2018-11-23T14:52:54.986Z,27.70
2018-11-23T14:55:23.790Z,30.70
2018-11-23T14:57:52.414Z,36.63
2018-11-23T15:00:23.731Z,33.03
2018-11-23T15:02:53.755Z,34.93
2018-11-23T15:05:22.384Z,32.97
2018-11-23T15:07:51.016Z,35.70
2018-11-23T15:10:21.183Z,35.43
2018-11-23T15:12:51.118Z,31.20
2018-11-23T15:15:20.973Z,32.03
2018-11-23T15:17:50.494Z,33.27
2018-11-23T15:20:20.796Z,34.63
2018-11-23T15:22:51.114Z,36.07
2018-11-23T15:25:19.750Z,37.87
2018-11-23T15:27:48.349Z,33.73
2018-11-23T15:30:22.383Z,37.67
2018-11-23T15:32:50.977Z,37.33
2018-11-23T15:35:19.573Z,38.13
2018-11-23T15:37:48.138Z,34.57
2018-11-23T15:40:20.965Z,57.37
2018-11-23T15:42:50.403Z,40.10
2018-11-23T15:45:23.243Z,38.97
2018-11-23T15:47:52.082Z,38.03
2018-11-23T15:50:22.022Z,36.63
2018-11-23T15:52:50.767Z,36.63
2018-11-23T15:55:21.756Z,37.20
2018-11-23T15:57:51.338Z,32.97
2018-11-23T16:00:22.914Z,38.17
2018-11-23T16:02:51.677Z,40.23
2018-11-23T16:05:20.436Z,35.27
2018-11-23T16:07:49.488Z,36.13
2018-11-23T16:10:20.509Z,38.13
2018-11-23T16:12:50.190Z,35.13
2018-11-23T16:15:19.636Z,38.20
2018-11-23T16:17:48.685Z,40.17
2018-11-23T16:20:20.114Z,41.20
2018-11-23T16:22:49.954Z,41.63
2018-11-23T16:25:18.687Z,39.57
2018-11-23T16:27:48.662Z,36.40
2018-11-23T16:30:21.485Z,38.87
2018-11-23T16:32:51.257Z,39.40
2018-11-23T16:35:21.621Z,40.80
2018-11-23T16:37:50.685Z,42.83
2018-11-23T16:40:21.059Z,42.90
2018-11-23T16:42:49.668Z,35.83
2018-11-23T16:45:22.388Z,42.83
2018-11-23T16:47:51.701Z,43.00
2018-11-23T16:50:20.271Z,38.37
2018-11-23T16:52:49.806Z,41.90
2018-11-23T16:55:19.943Z,40.80
2018-11-23T16:57:51.367Z,39.23
2018-11-23T17:00:22.412Z,46.43
2018-11-23T17:02:51.081Z,45.07
2018-11-23T17:05:21.286Z,42.87
2018-11-23T17:07:49.890Z,40.63
2018-11-23T17:10:19.389Z,43.77
2018-11-23T17:12:52.602Z,43.23
2018-11-23T17:15:23.590Z,43.63
2018-11-23T17:17:52.349Z,71.93
2018-11-23T17:20:22.292Z,104.47
2018-11-23T17:22:51.933Z,132.50
2018-11-23T17:25:21.718Z,129.90
2018-11-23T17:27:51.230Z,133.50
2018-11-23T17:30:21.387Z,90.67
2018-11-23T17:32:49.983Z,45.97
2018-11-23T17:35:26.881Z,43.93
2018-11-23T17:37:56.286Z,43.70
2018-11-23T17:40:27.166Z,44.90
2018-11-23T17:43:00.369Z,44.33
2018-11-23T17:45:31.066Z,42.73
2018-11-23T17:47:59.893Z,45.33
2018-11-23T17:50:32.924Z,44.53
2018-11-23T17:53:07.217Z,38.83
2018-11-23T17:55:36.033Z,39.17
2018-11-23T17:58:04.849Z,41.03
2018-11-23T18:00:39.194Z,43.60
2018-11-23T18:03:03.901Z,39.23
2018-11-23T18:05:37.159Z,43.93
2018-11-23T18:08:06.319Z,47.27
2018-11-23T18:10:35.216Z,42.43
2018-11-23T18:13:03.998Z,38.57
2018-11-23T18:15:33.818Z,40.23
2018-11-23T18:18:03.425Z,42.17
2018-11-23T18:20:32.548Z,42.83
2018-11-23T18:23:05.721Z,43.37
2018-11-23T18:25:36.914Z,40.73
2018-11-23T18:28:05.837Z,40.83
2018-11-23T18:30:35.082Z,37.73
2018-11-23T18:33:06.642Z,41.63
2018-11-23T18:35:35.238Z,41.97
2018-11-23T18:38:03.912Z,42.83
2018-11-23T18:40:37.434Z,43.17
2018-11-23T18:43:01.629Z,40.83
2018-11-23T18:45:30.312Z,44.13
2018-11-23T18:47:59.406Z,43.63
2018-11-23T18:50:27.989Z,42.50
2018-11-23T18:52:56.606Z,39.67
2018-11-23T18:55:25.194Z,44.63
2018-11-23T18:57:54.109Z,44.23
2018-11-23T19:00:22.707Z,41.30
2018-11-23T19:02:51.326Z,41.70
2018-11-23T19:05:21.416Z,39.80
2018-11-23T19:07:50.043Z,43.63
2018-11-23T19:10:18.634Z,42.20
2018-11-23T19:12:47.277Z,40.07
2018-11-23T19:15:25.322Z,39.43
2018-11-23T19:17:46.545Z,41.73
2018-11-23T19:22:52.466Z,38.90
2018-11-23T19:25:21.070Z,40.60
2018-11-23T19:27:49.665Z,42.70
2018-11-23T19:30:28.055Z,39.87
2018-11-23T19:32:50.138Z,39.53
2018-11-23T19:35:19.140Z,40.57
2018-11-23T19:37:47.718Z,43.57
2018-11-23T19:40:16.757Z,40.97
2018-11-23T19:42:45.861Z,39.90
2018-11-23T19:45:17.617Z,38.97
2018-11-23T19:47:46.177Z,36.83
2018-11-23T19:50:18.355Z,38.90
2018-11-23T19:52:46.982Z,36.93
2018-11-23T19:55:17.036Z,38.10
2018-11-23T19:57:45.610Z,34.60
2018-11-23T20:00:24.001Z,33.17
2018-11-23T20:02:56.406Z,35.10
2018-11-23T20:05:40.391Z,34.60
2018-11-23T20:08:22.436Z,33.87
2018-11-23T20:10:57.693Z,32.47
2018-11-23T20:13:35.614Z,35.60
2018-11-23T20:16:09.296Z,33.20
2018-11-23T20:18:44.254Z,34.70
2018-11-23T20:21:21.569Z,33.43
2018-11-23T20:23:58.789Z,36.03
2018-11-23T20:26:27.573Z,32.87
2018-11-23T20:28:57.405Z,34.13
2018-11-23T20:31:26.082Z,34.77
2018-11-23T20:33:54.757Z,33.90
2018-11-23T20:36:27.846Z,36.17
2018-11-23T20:38:58.527Z,34.97
2018-11-23T20:41:27.525Z,32.27
2018-11-23T20:43:56.143Z,33.43
2018-11-23T20:46:24.759Z,33.40
2018-11-23T20:48:53.317Z,35.10
2018-11-23T20:51:21.920Z,34.57
2018-11-23T20:53:50.566Z,30.57
2018-11-23T20:56:19.208Z,37.93
2018-11-23T20:58:48.342Z,34.60
2018-11-23T21:01:17.614Z,35.83
2018-11-23T21:03:46.202Z,42.50
2018-11-23T21:06:14.823Z,36.50
2018-11-23T21:08:43.407Z,32.77
2018-11-23T21:11:13.548Z,34.97
2018-11-23T21:13:44.076Z,34.97
2018-11-23T21:16:12.744Z,34.10
2018-11-23T21:18:41.452Z,36.90
2018-11-23T21:21:10.170Z,36.40
2018-11-23T21:23:38.762Z,40.33
2018-11-23T21:26:07.384Z,32.53
2018-11-23T21:28:35.965Z,34.00
2018-11-23T21:31:04.596Z,32.87
2018-11-23T21:33:35.980Z,33.33
2018-11-23T21:36:07.170Z,28.63
2018-11-23T21:38:39.810Z,31.20
2018-11-23T21:41:08.519Z,30.37
2018-11-23T21:43:37.099Z,33.60
2018-11-23T21:46:08.165Z,33.20
2018-11-23T21:48:37.123Z,31.13
2018-11-23T21:51:06.328Z,36.30
2018-11-23T21:53:38.291Z,33.60
2018-11-23T21:56:09.943Z,31.77
2018-11-23T21:58:40.589Z,31.37
2018-11-23T22:01:09.309Z,31.37
2018-11-23T22:03:39.834Z,40.13
2018-11-23T22:06:08.594Z,35.13
2018-11-23T22:08:37.420Z,33.40
2018-11-23T22:11:06.442Z,36.83
2018-11-23T22:13:34.995Z,32.47
2018-11-23T22:16:03.606Z,38.83
2018-11-23T22:18:32.403Z,31.43
2018-11-23T22:21:00.991Z,35.37
2018-11-23T22:23:29.583Z,71.77
2018-11-23T22:25:58.904Z,42.57
2018-11-23T22:28:28.710Z,33.90
2018-11-23T22:30:57.945Z,31.70
2018-11-23T22:33:28.031Z,33.93
2018-11-23T22:35:58.493Z,31.67
2018-11-23T22:38:28.314Z,32.80
2018-11-23T22:40:56.903Z,32.97
2018-11-23T22:43:26.777Z,32.30
2018-11-23T22:45:56.916Z,32.17
2018-11-23T22:48:25.639Z,32.43
2018-11-23T22:50:57.958Z,29.00
2018-11-23T22:53:27.291Z,31.57
2018-11-23T22:55:55.895Z,31.37
2018-11-23T22:58:25.740Z,34.17
2018-11-23T23:00:59.695Z,30.97
2018-11-23T23:03:28.597Z,32.40
2018-11-23T23:05:58.843Z,29.10
2018-11-23T23:08:28.846Z,32.17
2018-11-23T23:10:58.330Z,27.40
2018-11-23T23:13:27.289Z,31.70
2018-11-23T23:15:55.898Z,29.27
2018-11-23T23:18:26.236Z,29.00
2018-11-23T23:20:56.161Z,29.73
2018-11-23T23:23:24.778Z,31.73
2018-11-23T23:25:54.220Z,28.87
2018-11-23T23:28:22.916Z,33.40
2018-11-23T23:30:52.026Z,32.30
2018-11-23T23:33:20.814Z,32.93
2018-11-23T23:35:50.454Z,34.07
2018-11-23T23:38:19.370Z,32.53
2018-11-23T23:40:48.126Z,31.87
2018-11-23T23:43:18.137Z,30.70
2018-11-23T23:45:47.477Z,32.97
2018-11-23T23:48:17.168Z,35.53
2018-11-23T23:50:46.006Z,32.80
2018-11-23T23:53:15.495Z,33.13
2018-11-23T23:55:44.771Z,30.10
2018-11-23T23:58:15.411Z,35.67
